TimePST,TemperatureF,Dew PointF,Humidity,Sea Level PressureIn,VisibilityMPH,Wind Direction,Wind SpeedMPH,Gust SpeedMPH,PrecipitationIn,Events,Conditions,WindDirDegrees,DateUTC
12:58 AM,40.3,38.7,94,30.21,10.0,South,5.8,-,N/A,,Overcast,190,2012-12-06 08:58:00
1:58 AM,41.5,39.0,91,30.21,10.0,South,8.1,-,N/A,,Overcast,190,2012-12-06 09:58:00
2:23 AM,41.0,39.2,93,30.19,10.0,South,5.8,-,N/A,,Overcast,170,2012-12-06 10:23:00
2:24 AM,41.0,39.2,93,30.19,10.0,South,5.8,-,N/A,,Light Drizzle,170,2012-12-06 10:24:00
2:33 AM,41.0,39.2,93,30.19,10.0,South,5.8,-,N/A,,Overcast,170,2012-12-06 10:33:00
2:43 AM,41.0,39.2,93,30.18,10.0,SSE,6.9,-,N/A,,Mostly Cloudy,160,2012-12-06 10:43:00
2:58 AM,41.4,39.6,93,30.20,10.0,South,5.8,-,0.00,,Overcast,190,2012-12-06 10:58:00
3:03 AM,41.0,39.2,93,30.18,10.0,South,6.9,-,N/A,,Overcast,180,2012-12-06 11:03:00
3:13 AM,41.0,39.2,93,30.18,10.0,South,5.8,-,N/A,,Overcast,180,2012-12-06 11:13:00
3:18 AM,41.0,39.2,93,30.18,10.0,South,6.9,-,N/A,,Overcast,180,2012-12-06 11:18:00
3:33 AM,41.0,39.2,93,30.17,10.0,South,9.2,-,N/A,,Overcast,170,2012-12-06 11:33:00
3:38 AM,41.0,39.2,93,30.17,10.0,South,9.2,-,N/A,,Overcast,170,2012-12-06 11:38:00
3:58 AM,41.2,39.4,93,30.19,10.0,South,8.1,-,N/A,,Overcast,180,2012-12-06 11:58:00
4:23 AM,41.0,39.2,93,30.17,10.0,South,6.9,-,N/A,,Overcast,180,2012-12-06 12:23:00
4:58 AM,41.7,39.2,91,30.18,10.0,South,8.1,-,N/A,,Overcast,170,2012-12-06 12:58:00
5:13 AM,41.0,39.2,93,30.16,10.0,South,8.1,-,N/A,,Overcast,180,2012-12-06 13:13:00
5:18 AM,41.0,39.2,93,30.16,10.0,South,8.1,-,N/A,,Overcast,180,2012-12-06 13:18:00
5:20 AM,41.0,39.2,93,30.16,10.0,South,6.9,-,N/A,,Overcast,180,2012-12-06 13:20:00
5:25 AM,41.0,39.2,93,30.15,10.0,South,5.8,-,N/A,,Overcast,170,2012-12-06 13:25:00
5:30 AM,41.0,39.2,93,30.15,10.0,South,6.9,-,N/A,,Overcast,170,2012-12-06 13:30:00
5:58 AM,41.4,39.2,92,30.16,10.0,South,6.9,-,0.00,,Overcast,170,2012-12-06 13:58:00
6:33 AM,41.0,39.2,93,30.14,10.0,South,8.1,-,N/A,,Mostly Cloudy,170,2012-12-06 14:33:00
6:58 AM,41.7,38.7,89,30.15,10.0,South,9.2,-,N/A,,Mostly Cloudy,170,2012-12-06 14:58:00
7:36 AM,41.0,39.2,93,30.12,10.0,South,8.1,-,N/A,Rain,Light Rain,180,2012-12-06 15:36:00
7:49 AM,41.0,39.2,93,30.12,10.0,South,9.2,-,N/A,,Overcast,180,2012-12-06 15:49:00
7:58 AM,41.5,39.6,93,30.14,10.0,South,6.9,-,0.00,,Overcast,170,2012-12-06 15:58:00
8:08 AM,41.0,39.2,93,30.12,10.0,South,8.1,-,N/A,,Overcast,170,2012-12-06 16:08:00
8:58 AM,42.4,39.7,90,30.14,10.0,South,10.4,-,N/A,,Overcast,170,2012-12-06 16:58:00
9:03 AM,42.8,39.2,87,30.12,10.0,South,9.2,-,N/A,,Overcast,180,2012-12-06 17:03:00
9:08 AM,42.8,39.2,87,30.13,10.0,South,8.1,-,N/A,,Overcast,190,2012-12-06 17:08:00
9:33 AM,42.8,39.2,87,30.13,10.0,South,11.5,-,N/A,,Overcast,180,2012-12-06 17:33:00
9:35 AM,42.8,39.2,87,30.13,10.0,South,11.5,-,N/A,,Overcast,190,2012-12-06 17:35:00
9:45 AM,42.8,39.2,87,30.12,10.0,South,11.5,-,N/A,,Overcast,190,2012-12-06 17:45:00
9:58 AM,43.9,39.9,86,30.14,10.0,South,12.7,-,0.00,,Overcast,190,2012-12-06 17:58:00
10:02 AM,44.6,41.0,87,30.12,10.0,South,12.7,-,N/A,Rain,Light Rain,180,2012-12-06 18:02:00
10:17 AM,42.8,41.0,93,30.12,9.0,South,12.7,-,N/A,Rain,Light Rain,190,2012-12-06 18:17:00
10:58 AM,43.2,41.2,93,30.14,8.0,South,11.5,-,0.03,,Overcast,190,2012-12-06 18:58:00
11:48 AM,42.8,41.0,93,30.10,9.0,South,12.7,-,N/A,Rain,Light Rain,190,2012-12-06 19:48:00
11:53 AM,42.8,41.0,93,30.11,5.0,SSW,10.4,-,N/A,,Overcast,200,2012-12-06 19:53:00
11:58 AM,43.2,41.7,95,30.12,4.0,South,12.7,-,0.03,,Overcast,190,2012-12-06 19:58:00
12:08 PM,42.8,42.8,100,30.10,5.0,SSW,9.2,-,N/A,,Overcast,200,2012-12-06 20:08:00
12:13 PM,42.8,42.8,100,30.10,5.0,SW,9.2,-,N/A,,Overcast,220,2012-12-06 20:13:00
12:28 PM,42.8,41.0,93,30.10,7.0,SW,11.5,-,N/A,Rain,Light Rain,220,2012-12-06 20:28:00
12:38 PM,42.8,42.8,100,30.10,6.0,SW,10.4,-,N/A,,Overcast,220,2012-12-06 20:38:00
12:58 PM,43.0,41.9,96,30.11,10.0,South,11.5,-,0.09,Rain,Light Rain,190,2012-12-06 20:58:00
1:10 PM,42.8,41.0,93,30.09,10.0,SSW,11.5,-,N/A,,Overcast,200,2012-12-06 21:10:00
1:42 PM,42.8,41.0,93,30.08,10.0,South,10.4,-,N/A,Rain,Light Rain,190,2012-12-06 21:42:00
1:58 PM,43.2,42.1,96,30.10,9.0,South,11.5,-,0.01,Rain,Light Rain,190,2012-12-06 21:58:00
2:13 PM,42.8,42.8,100,30.08,10.0,SSW,11.5,-,N/A,Rain,Light Rain,200,2012-12-06 22:13:00
2:43 PM,42.8,42.8,100,30.08,8.0,SSW,6.9,-,N/A,Rain,Light Rain,210,2012-12-06 22:43:00
2:58 PM,43.3,42.4,97,30.10,10.0,SSW,8.1,-,0.04,Rain,Light Rain,210,2012-12-06 22:58:00
3:09 PM,42.8,42.8,100,30.08,10.0,SSW,6.9,-,N/A,,Overcast,210,2012-12-06 23:09:00
3:14 PM,42.8,42.8,100,30.08,10.0,SSW,6.9,-,N/A,,Overcast,210,2012-12-06 23:14:00
3:24 PM,42.8,42.8,100,30.08,10.0,SSW,6.9,-,N/A,,Overcast,200,2012-12-06 23:24:00
3:31 PM,42.8,42.8,100,30.08,10.0,SSW,9.2,-,N/A,Rain,Light Rain,200,2012-12-06 23:31:00
3:58 PM,43.5,43.0,98,30.10,9.0,SSW,8.1,-,0.01,Rain,Light Rain,210,2012-12-06 23:58:00
4:08 PM,42.8,42.8,100,30.08,5.0,WSW,6.9,-,N/A,Rain,Rain,240,2012-12-07 00:08:00
4:10 PM,42.8,42.8,100,30.08,6.0,West,6.9,-,N/A,Rain,Light Rain,260,2012-12-07 00:10:00
4:25 PM,42.8,42.8,100,30.09,10.0,SW,10.4,-,N/A,Rain,Light Rain,220,2012-12-07 00:25:00
4:30 PM,42.8,42.8,100,30.08,10.0,SSW,9.2,-,N/A,Rain,Light Rain,210,2012-12-07 00:30:00
4:45 PM,42.8,42.8,100,30.08,10.0,SSW,9.2,-,N/A,,Overcast,210,2012-12-07 00:45:00
4:58 PM,43.0,42.3,97,30.10,10.0,SW,8.1,-,0.03,,Overcast,220,2012-12-07 00:58:00
5:23 PM,42.8,42.8,100,30.08,10.0,South,8.1,-,N/A,,Overcast,190,2012-12-07 01:23:00
5:38 PM,41.0,41.0,100,30.08,10.0,South,8.1,-,N/A,,Mostly Cloudy,180,2012-12-07 01:38:00
5:43 PM,41.0,41.0,100,30.08,10.0,South,11.5,-,N/A,,Mostly Cloudy,190,2012-12-07 01:43:00
5:48 PM,42.8,41.0,93,30.08,10.0,SSW,10.4,-,N/A,,Scattered Clouds,200,2012-12-07 01:48:00
5:58 PM,42.3,41.9,99,30.10,10.0,SSW,9.2,-,N/A,,Scattered Clouds,200,2012-12-07 01:58:00
6:43 PM,41.0,41.0,100,30.09,10.0,South,8.1,-,N/A,,Mostly Cloudy,180,2012-12-07 02:43:00
6:48 PM,41.0,41.0,100,30.09,10.0,South,8.1,-,N/A,,Scattered Clouds,180,2012-12-07 02:48:00
6:58 PM,40.5,40.3,99,30.11,10.0,South,10.4,-,N/A,,Scattered Clouds,180,2012-12-07 02:58:00
7:58 PM,40.6,40.3,99,30.13,10.0,SSE,8.1,-,N/A,,Clear,160,2012-12-07 03:58:00
8:58 PM,39.6,39.4,99,30.15,10.0,South,9.2,-,N/A,,Clear,190,2012-12-07 04:58:00
9:58 PM,39.2,38.8,99,30.14,10.0,South,11.5,-,0.01,,Clear,190,2012-12-07 05:58:00
10:58 PM,41.2,41.0,99,30.15,10.0,South,10.4,-,N/A,,Mostly Cloudy,190,2012-12-07 06:58:00
11:58 PM,41.0,40.8,99,30.14,10.0,South,8.1,-,N/A,,Overcast,180,2012-12-07 07:58:00